Zaporizhzhia, Ukraine
Current Conditions -  °F | °C
As of 1:00 PM on Sunday 21 Dec 2014 (Local Time) from UKDE Reporting Station
Moderate Fog Moderate Fog  
Wind Chill: 30°   Ceiling: 100
Heat Index: 36°   Visibility: 0.18mi
Dew Point: 36°   Wind: 7mph
Humidity: 100%   Direction: 180°S
Pressure: 29.88"   Gusts: NA
Location:  47.85°N, 35.16°E
Report Text: UKDE 211000Z 18003MPS 150V210 0300 R20/0450D FG VV001 02/02 Q1012 20290554 NOSIG
Loading
Personal Weather Stations






























Interactive Weather Map New forecast layout! Learn more

10-Day Weather Forecast

Advertisements
Track Severe Weather on mobile